TimeEDT,TemperatureF,Dew PointF,Humidity,Sea Level PressureIn,VisibilityMPH,Wind Direction,Wind SpeedMPH,Gust SpeedMPH,PrecipitationIn,Events,Conditions,WindDirDegrees,DateUTC
12:54 AM,51.1,39.0,63,30.18,10.0,Calm,Calm,-,N/A,,Clear,0,2013-09-06 04:54:00
1:54 AM,52.0,39.0,61,30.18,10.0,NNW,4.6,-,N/A,,Clear,330,2013-09-06 05:54:00
2:54 AM,48.0,39.9,74,30.19,10.0,Calm,Calm,-,N/A,,Clear,0,2013-09-06 06:54:00
3:54 AM,48.0,39.9,74,30.21,10.0,Calm,Calm,-,N/A,,Clear,0,2013-09-06 07:54:00
4:54 AM,46.9,39.9,77,30.22,10.0,Calm,Calm,-,N/A,,Clear,0,2013-09-06 08:54:00
5:54 AM,46.0,39.0,76,30.23,10.0,Calm,Calm,-,N/A,,Clear,0,2013-09-06 09:54:00
6:54 AM,48.0,41.0,77,30.25,10.0,WNW,3.5,-,N/A,,Clear,290,2013-09-06 10:54:00
7:54 AM,52.0,42.1,69,30.25,10.0,Calm,Calm,-,N/A,,Clear,0,2013-09-06 11:54:00
8:54 AM,57.0,41.0,55,30.26,10.0,WNW,4.6,-,N/A,,Clear,300,2013-09-06 12:54:00
9:54 AM,61.0,39.9,46,30.27,10.0,Calm,Calm,-,N/A,,Clear,0,2013-09-06 13:54:00
10:54 AM,63.0,37.0,38,30.26,10.0,West,3.5,-,N/A,,Clear,270,2013-09-06 14:54:00
11:54 AM,64.9,37.0,36,30.24,10.0,Variable,5.8,-,N/A,,Clear,0,2013-09-06 15:54:00
12:54 PM,66.9,35.1,31,30.22,10.0,NW,8.1,-,N/A,,Clear,320,2013-09-06 16:54:00
1:54 PM,66.9,35.1,31,30.21,10.0,Calm,Calm,-,N/A,,Clear,0,2013-09-06 17:54:00
2:54 PM,70.0,39.0,32,30.18,10.0,Variable,5.8,-,N/A,,Clear,0,2013-09-06 18:54:00
3:54 PM,69.1,37.0,31,30.16,10.0,SW,5.8,-,N/A,,Clear,230,2013-09-06 19:54:00
4:54 PM,70.0,37.0,30,30.14,10.0,SW,8.1,-,N/A,,Clear,220,2013-09-06 20:54:00
5:54 PM,69.1,39.0,33,30.13,10.0,West,9.2,-,N/A,,Clear,260,2013-09-06 21:54:00
6:54 PM,66.0,35.1,32,30.13,10.0,West,5.8,-,N/A,,Clear,260,2013-09-06 22:54:00
7:54 PM,60.1,41.0,49,30.13,10.0,SSW,3.5,-,N/A,,Clear,210,2013-09-06 23:54:00
8:54 PM,57.0,43.0,59,30.13,10.0,South,4.6,-,N/A,,Clear,190,2013-09-07 00:54:00
9:54 PM,57.0,43.0,59,30.12,10.0,SW,5.8,-,N/A,,Clear,220,2013-09-07 01:54:00
10:54 PM,55.9,43.0,62,30.12,10.0,SSW,6.9,-,N/A,,Clear,200,2013-09-07 02:54:00
11:54 PM,55.0,44.1,67,30.10,10.0,South,5.8,-,N/A,,Clear,190,2013-09-07 03:54:00